sensor_id;sensor_type;location;lat;lon;timestamp;pressure;altitude;pressure_sealevel;temperature
15607;BMP180;7865;50.918;4.510;2023-10-09T00:02:48;101600.00;;;15.40
15607;BMP180;7865;50.918;4.510;2023-10-09T00:07:50;101599.00;;;15.40
15607;BMP180;7865;50.918;4.510;2023-10-09T00:12:57;101596.00;;;15.40
15607;BMP180;7865;50.918;4.510;2023-10-09T00:17:59;101590.00;;;15.40
15607;BMP180;7865;50.918;4.510;2023-10-09T00:23:01;101595.00;;;15.40
15607;BMP180;7865;50.918;4.510;2023-10-09T00:28:03;101600.00;;;15.40
15607;BMP180;7865;50.918;4.510;2023-10-09T00:33:20;101625.00;;;15.50
15607;BMP180;7865;50.918;4.510;2023-10-09T00:38:24;101624.00;;;15.80
15607;BMP180;7865;50.918;4.510;2023-10-09T00:43:33;101620.00;;;15.90
15607;BMP180;7865;50.918;4.510;2023-10-09T00:48:37;101616.00;;;16.00
15607;BMP180;7865;50.918;4.510;2023-10-09T00:53:52;101625.00;;;16.10
15607;BMP180;7865;50.918;4.510;2023-10-09T00:58:59;101619.00;;;16.10
15607;BMP180;7865;50.918;4.510;2023-10-09T01:04:03;101612.00;;;16.10
15607;BMP180;7865;50.918;4.510;2023-10-09T01:09:20;101615.00;;;16.00
15607;BMP180;7865;50.918;4.510;2023-10-09T01:14:24;101603.00;;;15.90
15607;BMP180;7865;50.918;4.510;2023-10-09T01:19:26;101591.00;;;15.90
15607;BMP180;7865;50.918;4.510;2023-10-09T01:24:32;101587.00;;;15.80
15607;BMP180;7865;50.918;4.510;2023-10-09T01:29:37;101590.00;;;15.80
15607;BMP180;7865;50.918;4.510;2023-10-09T01:34:42;101585.00;;;15.80
15607;BMP180;7865;50.918;4.510;2023-10-09T01:39:48;101575.00;;;15.80
15607;BMP180;7865;50.918;4.510;2023-10-09T01:44:50;101573.00;;;15.70
15607;BMP180;7865;50.918;4.510;2023-10-09T01:49:55;101571.00;;;15.70
15607;BMP180;7865;50.918;4.510;2023-10-09T01:54:59;101572.00;;;15.70
15607;BMP180;7865;50.918;4.510;2023-10-09T02:00:09;101577.00;;;15.70
15607;BMP180;7865;50.918;4.510;2023-10-09T02:05:14;101563.00;;;15.80
15607;BMP180;7865;50.918;4.510;2023-10-09T02:10:16;101556.00;;;15.80
15607;BMP180;7865;50.918;4.510;2023-10-09T02:15:30;101559.00;;;15.80
15607;BMP180;7865;50.918;4.510;2023-10-09T02:20:45;101560.00;;;15.80
15607;BMP180;7865;50.918;4.510;2023-10-09T02:25:48;101574.00;;;15.90
15607;BMP180;7865;50.918;4.510;2023-10-09T02:30:54;101570.00;;;16.00
15607;BMP180;7865;50.918;4.510;2023-10-09T02:36:03;101568.00;;;15.90
15607;BMP180;7865;50.918;4.510;2023-10-09T02:41:07;101566.00;;;15.90
15607;BMP180;7865;50.918;4.510;2023-10-09T02:46:16;101548.00;;;15.80
15607;BMP180;7865;50.918;4.510;2023-10-09T02:51:35;101546.00;;;15.70
15607;BMP180;7865;50.918;4.510;2023-10-09T02:56:47;101560.00;;;15.70
15607;BMP180;7865;50.918;4.510;2023-10-09T03:01:56;101564.00;;;15.70
15607;BMP180;7865;50.918;4.510;2023-10-09T03:07:02;101556.00;;;15.80
15607;BMP180;7865;50.918;4.510;2023-10-09T03:12:06;101546.00;;;15.90
15607;BMP180;7865;50.918;4.510;2023-10-09T03:17:11;101538.00;;;15.80
15607;BMP180;7865;50.918;4.510;2023-10-09T03:22:14;101550.00;;;15.70
15607;BMP180;7865;50.918;4.510;2023-10-09T03:27:16;101545.00;;;15.70
15607;BMP180;7865;50.918;4.510;2023-10-09T03:32:18;101543.00;;;15.60
15607;BMP180;7865;50.918;4.510;2023-10-09T03:37:21;101549.00;;;15.50
15607;BMP180;7865;50.918;4.510;2023-10-09T03:42:25;101530.00;;;15.40
15607;BMP180;7865;50.918;4.510;2023-10-09T03:47:28;101537.00;;;15.30
15607;BMP180;7865;50.918;4.510;2023-10-09T03:52:30;101537.00;;;15.20
15607;BMP180;7865;50.918;4.510;2023-10-09T03:57:32;101531.00;;;15.20
15607;BMP180;7865;50.918;4.510;2023-10-09T04:02:34;101527.00;;;15.20
15607;BMP180;7865;50.918;4.510;2023-10-09T04:07:36;101532.00;;;15.20
15607;BMP180;7865;50.918;4.510;2023-10-09T04:12:38;101542.00;;;15.20
15607;BMP180;7865;50.918;4.510;2023-10-09T04:17:41;101560.00;;;15.30
15607;BMP180;7865;50.918;4.510;2023-10-09T04:22:45;101551.00;;;15.40
15607;BMP180;7865;50.918;4.510;2023-10-09T04:28:01;101545.00;;;15.40
15607;BMP180;7865;50.918;4.510;2023-10-09T04:33:26;101532.00;;;15.40
15607;BMP180;7865;50.918;4.510;2023-10-09T04:38:45;101521.00;;;15.40
15607;BMP180;7865;50.918;4.510;2023-10-09T04:44:05;101530.00;;;15.40
15607;BMP180;7865;50.918;4.510;2023-10-09T04:49:19;101541.00;;;15.50
15607;BMP180;7865;50.918;4.510;2023-10-09T04:54:30;101533.00;;;15.50
15607;BMP180;7865;50.918;4.510;2023-10-09T04:59:41;101545.00;;;15.50
15607;BMP180;7865;50.918;4.510;2023-10-09T05:04:49;101545.00;;;15.60
15607;BMP180;7865;50.918;4.510;2023-10-09T05:10:11;101528.00;;;15.60
15607;BMP180;7865;50.918;4.510;2023-10-09T05:15:20;101531.00;;;15.50
15607;BMP180;7865;50.918;4.510;2023-10-09T05:20:28;101540.00;;;15.40
15607;BMP180;7865;50.918;4.510;2023-10-09T05:25:30;101538.00;;;15.40
15607;BMP180;7865;50.918;4.510;2023-10-09T05:30:52;101552.00;;;15.40
15607;BMP180;7865;50.918;4.510;2023-10-09T05:36:08;101545.00;;;15.40
15607;BMP180;7865;50.918;4.510;2023-10-09T05:41:33;101544.00;;;15.40
15607;BMP180;7865;50.918;4.510;2023-10-09T05:46:49;101553.00;;;15.30
15607;BMP180;7865;50.918;4.510;2023-10-09T05:52:12;101547.00;;;15.30
15607;BMP180;7865;50.918;4.510;2023-10-09T05:57:33;101555.00;;;15.30
15607;BMP180;7865;50.918;4.510;2023-10-09T06:02:53;101557.00;;;15.40
15607;BMP180;7865;50.918;4.510;2023-10-09T06:08:13;101580.00;;;15.40
15607;BMP180;7865;50.918;4.510;2023-10-09T06:13:18;101563.00;;;15.40
15607;BMP180;7865;50.918;4.510;2023-10-09T06:18:39;101557.00;;;15.50
15607;BMP180;7865;50.918;4.510;2023-10-09T06:23:45;101562.00;;;15.50
15607;BMP180;7865;50.918;4.510;2023-10-09T06:29:11;101555.00;;;15.50
15607;BMP180;7865;50.918;4.510;2023-10-09T06:34:17;101558.00;;;15.50
15607;BMP180;7865;50.918;4.510;2023-10-09T06:39:19;101552.00;;;15.60
15607;BMP180;7865;50.918;4.510;2023-10-09T06:44:40;101566.00;;;15.70
15607;BMP180;7865;50.918;4.510;2023-10-09T06:49:54;101569.00;;;15.80
15607;BMP180;7865;50.918;4.510;2023-10-09T06:55:27;101567.00;;;16.00
15607;BMP180;7865;50.918;4.510;2023-10-09T07:00:58;101570.00;;;16.10
15607;BMP180;7865;50.918;4.510;2023-10-09T07:06:10;101572.00;;;16.20
15607;BMP180;7865;50.918;4.510;2023-10-09T07:11:51;101582.00;;;16.30
15607;BMP180;7865;50.918;4.510;2023-10-09T07:17:01;101588.00;;;16.50
15607;BMP180;7865;50.918;4.510;2023-10-09T07:22:03;101583.00;;;16.70
15607;BMP180;7865;50.918;4.510;2023-10-09T07:27:05;101560.00;;;16.80
15607;BMP180;7865;50.918;4.510;2023-10-09T07:32:15;101594.00;;;16.90
15607;BMP180;7865;50.918;4.510;2023-10-09T07:37:23;101601.00;;;17.10
15607;BMP180;7865;50.918;4.510;2023-10-09T07:42:25;101590.00;;;17.50
15607;BMP180;7865;50.918;4.510;2023-10-09T07:47:42;101593.00;;;17.90
15607;BMP180;7865;50.918;4.510;2023-10-09T07:53:03;101612.00;;;18.40
15607;BMP180;7865;50.918;4.510;2023-10-09T07:58:28;101593.00;;;18.80
15607;BMP180;7865;50.918;4.510;2023-10-09T08:03:31;101607.00;;;18.80
15607;BMP180;7865;50.918;4.510;2023-10-09T08:08:35;101605.00;;;18.70
15607;BMP180;7865;50.918;4.510;2023-10-09T08:13:40;101620.00;;;18.60
15607;BMP180;7865;50.918;4.510;2023-10-09T08:18:51;101617.00;;;18.50
15607;BMP180;7865;50.918;4.510;2023-10-09T08:23:53;101616.00;;;18.50
15607;BMP180;7865;50.918;4.510;2023-10-09T08:28:56;101623.00;;;18.50
15607;BMP180;7865;50.918;4.510;2023-10-09T08:34:27;101607.00;;;19.10
15607;BMP180;7865;50.918;4.510;2023-10-09T08:39:32;101597.00;;;19.30
15607;BMP180;7865;50.918;4.510;2023-10-09T08:44:38;101595.00;;;19.40
15607;BMP180;7865;50.918;4.510;2023-10-09T08:49:41;101599.00;;;19.80
15607;BMP180;7865;50.918;4.510;2023-10-09T08:54:44;101602.00;;;20.10
15607;BMP180;7865;50.918;4.510;2023-10-09T08:59:46;101627.00;;;20.50
15607;BMP180;7865;50.918;4.510;2023-10-09T09:04:48;101614.00;;;20.90
15607;BMP180;7865;50.918;4.510;2023-10-09T09:09:58;101598.00;;;21.40
15607;BMP180;7865;50.918;4.510;2023-10-09T09:15:13;101596.00;;;21.30
15607;BMP180;7865;50.918;4.510;2023-10-09T09:20:25;101606.00;;;21.30
15607;BMP180;7865;50.918;4.510;2023-10-09T09:25:46;101591.00;;;21.20
15607;BMP180;7865;50.918;4.510;2023-10-09T09:31:08;101608.00;;;21.30
15607;BMP180;7865;50.918;4.510;2023-10-09T09:36:24;101617.00;;;21.70
15607;BMP180;7865;50.918;4.510;2023-10-09T09:41:30;101606.00;;;22.10
15607;BMP180;7865;50.918;4.510;2023-10-09T09:46:35;101624.00;;;22.30
15607;BMP180;7865;50.918;4.510;2023-10-09T09:51:39;101613.00;;;22.40
15607;BMP180;7865;50.918;4.510;2023-10-09T09:56:45;101619.00;;;22.50
15607;BMP180;7865;50.918;4.510;2023-10-09T10:01:56;101623.00;;;22.20
15607;BMP180;7865;50.918;4.510;2023-10-09T10:06:59;101607.00;;;21.90
15607;BMP180;7865;50.918;4.510;2023-10-09T10:12:11;101606.00;;;21.90
15607;BMP180;7865;50.918;4.510;2023-10-09T10:17:13;101606.00;;;21.90
15607;BMP180;7865;50.918;4.510;2023-10-09T10:22:24;101595.00;;;22.20
15607;BMP180;7865;50.918;4.510;2023-10-09T10:27:33;101609.00;;;22.60
15607;BMP180;7865;50.918;4.510;2023-10-09T10:32:53;101614.00;;;22.90
15607;BMP180;7865;50.918;4.510;2023-10-09T10:37:55;101617.00;;;22.80
15607;BMP180;7865;50.918;4.510;2023-10-09T10:43:23;101612.00;;;22.60
15607;BMP180;7865;50.918;4.510;2023-10-09T10:48:36;101605.00;;;22.60
15607;BMP180;7865;50.918;4.510;2023-10-09T10:53:51;101606.00;;;22.70
15607;BMP180;7865;50.918;4.510;2023-10-09T10:59:13;101626.00;;;22.80
15607;BMP180;7865;50.918;4.510;2023-10-09T11:04:16;101613.00;;;22.90
15607;BMP180;7865;50.918;4.510;2023-10-09T11:09:26;101614.00;;;22.90
15607;BMP180;7865;50.918;4.510;2023-10-09T11:14:53;101627.00;;;23.00
15607;BMP180;7865;50.918;4.510;2023-10-09T11:20:08;101622.00;;;23.00
15607;BMP180;7865;50.918;4.510;2023-10-09T11:25:33;101636.00;;;23.20
15607;BMP180;7865;50.918;4.510;2023-10-09T11:30:36;101643.00;;;23.20
15607;BMP180;7865;50.918;4.510;2023-10-09T11:35:41;101635.00;;;23.40
15607;BMP180;7865;50.918;4.510;2023-10-09T11:40:45;101627.00;;;23.50
15607;BMP180;7865;50.918;4.510;2023-10-09T11:45:53;101628.00;;;23.60
15607;BMP180;7865;50.918;4.510;2023-10-09T11:50:58;101620.00;;;23.60
15607;BMP180;7865;50.918;4.510;2023-10-09T11:56:06;101598.00;;;23.60
15607;BMP180;7865;50.918;4.510;2023-10-09T12:01:12;101600.00;;;23.70
15607;BMP180;7865;50.918;4.510;2023-10-09T12:06:24;101599.00;;;23.80
15607;BMP180;7865;50.918;4.510;2023-10-09T12:11:33;101594.00;;;24.00
15607;BMP180;7865;50.918;4.510;2023-10-09T12:16:36;101604.00;;;23.90
15607;BMP180;7865;50.918;4.510;2023-10-09T12:21:41;101603.00;;;23.50
15607;BMP180;7865;50.918;4.510;2023-10-09T12:26:44;101599.00;;;23.40
15607;BMP180;7865;50.918;4.510;2023-10-09T12:31:47;101602.00;;;23.10
15607;BMP180;7865;50.918;4.510;2023-10-09T12:36:49;101600.00;;;23.30
15607;BMP180;7865;50.918;4.510;2023-10-09T12:41:51;101601.00;;;23.30
15607;BMP180;7865;50.918;4.510;2023-10-09T12:46:56;101601.00;;;23.10
15607;BMP180;7865;50.918;4.510;2023-10-09T12:51:58;101588.00;;;23.10
15607;BMP180;7865;50.918;4.510;2023-10-09T12:57:01;101601.00;;;23.00
15607;BMP180;7865;50.918;4.510;2023-10-09T13:02:03;101606.00;;;22.90
15607;BMP180;7865;50.918;4.510;2023-10-09T13:07:07;101612.00;;;22.90
15607;BMP180;7865;50.918;4.510;2023-10-09T13:12:09;101589.00;;;23.00
15607;BMP180;7865;50.918;4.510;2023-10-09T13:17:20;101576.00;;;22.90
15607;BMP180;7865;50.918;4.510;2023-10-09T13:22:23;101579.00;;;22.70
15607;BMP180;7865;50.918;4.510;2023-10-09T13:27:26;101587.00;;;22.60
15607;BMP180;7865;50.918;4.510;2023-10-09T13:32:35;101577.00;;;22.90
15607;BMP180;7865;50.918;4.510;2023-10-09T13:37:38;101591.00;;;23.10
15607;BMP180;7865;50.918;4.510;2023-10-09T13:42:40;101593.00;;;23.00
15607;BMP180;7865;50.918;4.510;2023-10-09T13:47:42;101600.00;;;22.80
15607;BMP180;7865;50.918;4.510;2023-10-09T13:52:47;101574.00;;;22.60
15607;BMP180;7865;50.918;4.510;2023-10-09T13:57:49;101575.00;;;22.50
15607;BMP180;7865;50.918;4.510;2023-10-09T14:02:51;101577.00;;;22.30
15607;BMP180;7865;50.918;4.510;2023-10-09T14:07:53;101583.00;;;22.20
15607;BMP180;7865;50.918;4.510;2023-10-09T14:12:56;101588.00;;;22.30
15607;BMP180;7865;50.918;4.510;2023-10-09T14:17:58;101573.00;;;22.40
15607;BMP180;7865;50.918;4.510;2023-10-09T14:23:04;101571.00;;;22.60
15607;BMP180;7865;50.918;4.510;2023-10-09T14:28:09;101563.00;;;22.50
15607;BMP180;7865;50.918;4.510;2023-10-09T14:33:11;101558.00;;;22.60
15607;BMP180;7865;50.918;4.510;2023-10-09T14:38:24;101564.00;;;22.50
15607;BMP180;7865;50.918;4.510;2023-10-09T14:43:29;101558.00;;;22.50
15607;BMP180;7865;50.918;4.510;2023-10-09T14:48:35;101563.00;;;22.40
15607;BMP180;7865;50.918;4.510;2023-10-09T14:53:39;101567.00;;;22.30
15607;BMP180;7865;50.918;4.510;2023-10-09T14:58:42;101571.00;;;22.20
15607;BMP180;7865;50.918;4.510;2023-10-09T15:03:44;101563.00;;;22.10
15607;BMP180;7865;50.918;4.510;2023-10-09T15:08:49;101554.00;;;22.00
15607;BMP180;7865;50.918;4.510;2023-10-09T15:13:52;101551.00;;;21.70
15607;BMP180;7865;50.918;4.510;2023-10-09T15:18:55;101552.00;;;21.30
15607;BMP180;7865;50.918;4.510;2023-10-09T15:24:04;101546.00;;;20.90
15607;BMP180;7865;50.918;4.510;2023-10-09T15:29:06;101546.00;;;20.60
15607;BMP180;7865;50.918;4.510;2023-10-09T15:34:09;101548.00;;;20.50
15607;BMP180;7865;50.918;4.510;2023-10-09T15:39:10;101556.00;;;20.40
15607;BMP180;7865;50.918;4.510;2023-10-09T15:44:13;101556.00;;;20.30
15607;BMP180;7865;50.918;4.510;2023-10-09T15:49:15;101562.00;;;20.20
15607;BMP180;7865;50.918;4.510;2023-10-09T15:54:17;101562.00;;;20.20
15607;BMP180;7865;50.918;4.510;2023-10-09T15:59:22;101553.00;;;20.10
15607;BMP180;7865;50.918;4.510;2023-10-09T16:04:26;101561.00;;;19.90
15607;BMP180;7865;50.918;4.510;2023-10-09T16:09:29;101560.00;;;19.80
15607;BMP180;7865;50.918;4.510;2023-10-09T16:14:32;101569.00;;;19.60
15607;BMP180;7865;50.918;4.510;2023-10-09T16:19:36;101562.00;;;19.40
15607;BMP180;7865;50.918;4.510;2023-10-09T16:24:39;101576.00;;;19.20
15607;BMP180;7865;50.918;4.510;2023-10-09T16:29:41;101577.00;;;19.20
15607;BMP180;7865;50.918;4.510;2023-10-09T16:34:52;101576.00;;;19.10
15607;BMP180;7865;50.918;4.510;2023-10-09T16:39:54;101584.00;;;18.90
15607;BMP180;7865;50.918;4.510;2023-10-09T16:44:57;101579.00;;;18.70
15607;BMP180;7865;50.918;4.510;2023-10-09T16:49:59;101586.00;;;18.50
15607;BMP180;7865;50.918;4.510;2023-10-09T16:55:02;101581.00;;;18.20
15607;BMP180;7865;50.918;4.510;2023-10-09T17:00:15;101583.00;;;18.00
15607;BMP180;7865;50.918;4.510;2023-10-09T17:05:30;101588.00;;;17.80
15607;BMP180;7865;50.918;4.510;2023-10-09T17:10:35;101586.00;;;17.60
15607;BMP180;7865;50.918;4.510;2023-10-09T17:15:38;101584.00;;;17.50
15607;BMP180;7865;50.918;4.510;2023-10-09T17:20:40;101593.00;;;17.30
15607;BMP180;7865;50.918;4.510;2023-10-09T17:25:50;101591.00;;;17.20
15607;BMP180;7865;50.918;4.510;2023-10-09T17:31:00;101595.00;;;17.00
15607;BMP180;7865;50.918;4.510;2023-10-09T17:36:07;101593.00;;;16.90
15607;BMP180;7865;50.918;4.510;2023-10-09T17:41:09;101602.00;;;16.70
15607;BMP180;7865;50.918;4.510;2023-10-09T17:46:11;101601.00;;;16.60
15607;BMP180;7865;50.918;4.510;2023-10-09T17:51:16;101599.00;;;16.50
15607;BMP180;7865;50.918;4.510;2023-10-09T17:56:20;101601.00;;;16.40
15607;BMP180;7865;50.918;4.510;2023-10-09T18:01:27;101601.00;;;16.30
15607;BMP180;7865;50.918;4.510;2023-10-09T18:06:29;101594.00;;;16.20
15607;BMP180;7865;50.918;4.510;2023-10-09T18:11:32;101591.00;;;16.20
15607;BMP180;7865;50.918;4.510;2023-10-09T18:16:33;101599.00;;;16.20
15607;BMP180;7865;50.918;4.510;2023-10-09T18:21:35;101602.00;;;16.20
15607;BMP180;7865;50.918;4.510;2023-10-09T18:26:43;101600.00;;;16.20
15607;BMP180;7865;50.918;4.510;2023-10-09T18:31:46;101608.00;;;16.20
15607;BMP180;7865;50.918;4.510;2023-10-09T18:36:48;101607.00;;;16.10
15607;BMP180;7865;50.918;4.510;2023-10-09T18:41:51;101609.00;;;16.00
15607;BMP180;7865;50.918;4.510;2023-10-09T18:46:53;101618.00;;;15.90
15607;BMP180;7865;50.918;4.510;2023-10-09T18:51:56;101624.00;;;15.80
15607;BMP180;7865;50.918;4.510;2023-10-09T18:56:58;101620.00;;;15.60
15607;BMP180;7865;50.918;4.510;2023-10-09T19:01:59;101621.00;;;15.50
15607;BMP180;7865;50.918;4.510;2023-10-09T19:07:03;101614.00;;;15.40
15607;BMP180;7865;50.918;4.510;2023-10-09T19:12:07;101617.00;;;15.30
15607;BMP180;7865;50.918;4.510;2023-10-09T19:17:09;101627.00;;;15.30
15607;BMP180;7865;50.918;4.510;2023-10-09T19:22:13;101619.00;;;15.20
15607;BMP180;7865;50.918;4.510;2023-10-09T19:27:17;101617.00;;;15.20
15607;BMP180;7865;50.918;4.510;2023-10-09T19:32:22;101618.00;;;15.10
15607;BMP180;7865;50.918;4.510;2023-10-09T19:37:24;101622.00;;;15.00
15607;BMP180;7865;50.918;4.510;2023-10-09T19:42:26;101625.00;;;15.00
15607;BMP180;7865;50.918;4.510;2023-10-09T19:47:28;101625.00;;;15.00
15607;BMP180;7865;50.918;4.510;2023-10-09T19:52:30;101612.00;;;15.00
15607;BMP180;7865;50.918;4.510;2023-10-09T19:57:32;101614.00;;;14.90
15607;BMP180;7865;50.918;4.510;2023-10-09T20:02:35;101621.00;;;14.90
15607;BMP180;7865;50.918;4.510;2023-10-09T20:07:37;101626.00;;;14.90
15607;BMP180;7865;50.918;4.510;2023-10-09T20:12:39;101635.00;;;14.90
15607;BMP180;7865;50.918;4.510;2023-10-09T20:17:42;101635.00;;;14.80
15607;BMP180;7865;50.918;4.510;2023-10-09T20:22:45;101636.00;;;14.70
15607;BMP180;7865;50.918;4.510;2023-10-09T20:27:47;101630.00;;;14.60
15607;BMP180;7865;50.918;4.510;2023-10-09T20:32:51;101625.00;;;14.60
15607;BMP180;7865;50.918;4.510;2023-10-09T20:37:56;101616.00;;;14.50
15607;BMP180;7865;50.918;4.510;2023-10-09T20:43:03;101613.00;;;14.40
15607;BMP180;7865;50.918;4.510;2023-10-09T20:48:05;101615.00;;;14.30
15607;BMP180;7865;50.918;4.510;2023-10-09T20:53:07;101609.00;;;14.30
15607;BMP180;7865;50.918;4.510;2023-10-09T20:58:10;101608.00;;;14.20
15607;BMP180;7865;50.918;4.510;2023-10-09T21:03:12;101605.00;;;14.20
15607;BMP180;7865;50.918;4.510;2023-10-09T21:08:18;101618.00;;;14.10
15607;BMP180;7865;50.918;4.510;2023-10-09T21:13:20;101618.00;;;14.10
15607;BMP180;7865;50.918;4.510;2023-10-09T21:18:22;101602.00;;;14.00
15607;BMP180;7865;50.918;4.510;2023-10-09T21:23:24;101599.00;;;13.90
15607;BMP180;7865;50.918;4.510;2023-10-09T21:28:26;101597.00;;;13.90
15607;BMP180;7865;50.918;4.510;2023-10-09T21:33:28;101599.00;;;13.90
15607;BMP180;7865;50.918;4.510;2023-10-09T21:38:30;101612.00;;;13.80
15607;BMP180;7865;50.918;4.510;2023-10-09T21:43:32;101609.00;;;13.70
15607;BMP180;7865;50.918;4.510;2023-10-09T21:48:35;101607.00;;;13.70
15607;BMP180;7865;50.918;4.510;2023-10-09T21:53:37;101607.00;;;13.60
15607;BMP180;7865;50.918;4.510;2023-10-09T21:58:41;101604.00;;;13.60
15607;BMP180;7865;50.918;4.510;2023-10-09T22:03:44;101606.00;;;13.50
15607;BMP180;7865;50.918;4.510;2023-10-09T22:08:47;101609.00;;;13.40
15607;BMP180;7865;50.918;4.510;2023-10-09T22:13:48;101615.00;;;13.40
15607;BMP180;7865;50.918;4.510;2023-10-09T22:18:51;101602.00;;;13.30
15607;BMP180;7865;50.918;4.510;2023-10-09T22:24:13;101596.00;;;13.30
15607;BMP180;7865;50.918;4.510;2023-10-09T22:29:20;101590.00;;;13.30
15607;BMP180;7865;50.918;4.510;2023-10-09T22:34:22;101583.00;;;13.30
15607;BMP180;7865;50.918;4.510;2023-10-09T22:39:24;101586.00;;;13.20
15607;BMP180;7865;50.918;4.510;2023-10-09T22:44:35;101572.00;;;13.20
15607;BMP180;7865;50.918;4.510;2023-10-09T22:49:40;101578.00;;;13.20
15607;BMP180;7865;50.918;4.510;2023-10-09T22:54:44;101582.00;;;13.20
15607;BMP180;7865;50.918;4.510;2023-10-09T22:59:50;101582.00;;;13.20
15607;BMP180;7865;50.918;4.510;2023-10-09T23:04:53;101575.00;;;13.20
15607;BMP180;7865;50.918;4.510;2023-10-09T23:10:05;101558.00;;;13.20
15607;BMP180;7865;50.918;4.510;2023-10-09T23:15:19;101556.00;;;13.20
15607;BMP180;7865;50.918;4.510;2023-10-09T23:20:38;101553.00;;;13.30
15607;BMP180;7865;50.918;4.510;2023-10-09T23:25:54;101556.00;;;13.30
15607;BMP180;7865;50.918;4.510;2023-10-09T23:30:57;101553.00;;;13.30
15607;BMP180;7865;50.918;4.510;2023-10-09T23:35:59;101562.00;;;13.30
15607;BMP180;7865;50.918;4.510;2023-10-09T23:41:09;101567.00;;;13.20
15607;BMP180;7865;50.918;4.510;2023-10-09T23:46:13;101566.00;;;13.20
15607;BMP180;7865;50.918;4.510;2023-10-09T23:51:19;101558.00;;;13.10
15607;BMP180;7865;50.918;4.510;2023-10-09T23:56:21;101551.00;;;13.10
